createdAt,value
2022-10-16T00:01:06.907Z,1.70
2022-10-16T00:03:35.228Z,1.60
2022-10-16T00:06:03.573Z,1.50
2022-10-16T00:08:31.931Z,1.60
2022-10-16T00:11:03.998Z,1.70
2022-10-16T00:13:33.254Z,1.60
2022-10-16T00:16:03.117Z,1.40
2022-10-16T00:18:31.776Z,1.50
2022-10-16T00:21:04.883Z,1.47
2022-10-16T00:23:33.297Z,1.30
2022-10-16T00:26:03.736Z,1.30
2022-10-16T00:28:32.239Z,1.60
2022-10-16T00:31:02.092Z,1.20
2022-10-16T00:33:31.689Z,1.40
2022-10-16T00:36:00.698Z,1.30
2022-10-16T00:38:29.214Z,1.30
2022-10-16T00:40:57.781Z,1.03
2022-10-16T00:43:36.392Z,1.20
2022-10-16T00:46:05.010Z,1.00
2022-10-16T00:48:34.691Z,1.27
2022-10-16T00:51:02.997Z,1.20
2022-10-16T00:53:31.402Z,1.40
2022-10-16T00:55:59.801Z,1.50
2022-10-16T00:58:28.539Z,1.63
2022-10-16T01:00:56.944Z,1.67
2022-10-16T01:03:26.665Z,1.60
2022-10-16T01:05:57.673Z,1.57
2022-10-16T01:08:28.139Z,2.20
2022-10-16T01:10:58.308Z,1.53
2022-10-16T01:13:27.795Z,1.70
2022-10-16T01:15:58.723Z,1.73
2022-10-16T01:18:28.388Z,1.73
2022-10-16T01:20:59.607Z,1.70
2022-10-16T01:23:34.153Z,2.03
2022-10-16T01:26:21.836Z,1.80
2022-10-16T01:28:53.210Z,1.83
2022-10-16T01:31:22.219Z,1.97
2022-10-16T01:33:50.956Z,1.90
2022-10-16T01:36:19.780Z,1.90
2022-10-16T01:38:48.177Z,1.60
2022-10-16T01:41:25.934Z,1.80
2022-10-16T01:43:56.121Z,1.50
2022-10-16T01:46:24.515Z,1.40
2022-10-16T01:48:53.936Z,1.30
2022-10-16T01:51:22.258Z,1.50
2022-10-16T01:53:51.263Z,1.87
2022-10-16T01:56:19.586Z,1.60
2022-10-16T01:58:48.518Z,2.07
2022-10-16T02:01:18.465Z,2.40
2022-10-16T02:03:46.803Z,2.50
2022-10-16T02:06:15.172Z,2.27
2022-10-16T02:08:45.052Z,2.00
2022-10-16T02:11:13.911Z,1.97
2022-10-16T02:13:43.222Z,1.60
2022-10-16T02:16:11.728Z,1.80
2022-10-16T02:18:41.560Z,2.40
2022-10-16T02:21:12.270Z,2.13
2022-10-16T02:23:43.599Z,2.10
2022-10-16T02:26:12.194Z,2.20
2022-10-16T02:28:41.622Z,2.30
2022-10-16T02:31:10.984Z,2.10
2022-10-16T02:33:40.847Z,2.20
2022-10-16T02:36:09.415Z,2.30
2022-10-16T02:38:37.996Z,2.20
2022-10-16T02:41:06.547Z,2.20
2022-10-16T02:43:35.000Z,2.40
2022-10-16T02:46:03.845Z,2.10
2022-10-16T02:48:32.226Z,2.10
2022-10-16T02:51:02.183Z,2.13
2022-10-16T02:53:30.582Z,1.87
2022-10-16T02:55:59.002Z,1.87
2022-10-16T02:58:27.466Z,2.10
2022-10-16T03:00:55.876Z,2.60
2022-10-16T03:03:24.371Z,2.10
2022-10-16T03:05:52.776Z,2.10
2022-10-16T03:08:24.629Z,2.00
2022-10-16T03:10:53.106Z,2.10
2022-10-16T03:13:22.446Z,1.90
2022-10-16T03:15:51.017Z,2.10
2022-10-16T03:18:19.509Z,1.47
2022-10-16T03:20:47.880Z,1.70
2022-10-16T03:23:16.378Z,1.70
2022-10-16T03:25:48.262Z,1.37
2022-10-16T03:28:17.043Z,1.60
2022-10-16T03:30:45.730Z,1.60
2022-10-16T03:33:14.162Z,1.80
2022-10-16T03:35:42.750Z,1.57
2022-10-16T03:38:11.381Z,1.80
2022-10-16T03:40:39.916Z,1.57
2022-10-16T03:43:09.697Z,1.83
2022-10-16T03:45:38.153Z,1.70
2022-10-16T03:48:06.711Z,1.80
2022-10-16T03:50:35.173Z,1.63
2022-10-16T03:53:03.561Z,1.83
2022-10-16T03:55:31.967Z,1.90
2022-10-16T03:58:00.334Z,1.93
2022-10-16T04:00:33.368Z,1.57
2022-10-16T04:03:01.784Z,1.70
2022-10-16T04:05:30.212Z,1.63
2022-10-16T04:07:58.620Z,1.67
2022-10-16T04:10:27.007Z,1.70
2022-10-16T04:12:57.306Z,1.80
2022-10-16T04:15:25.780Z,1.60
2022-10-16T04:17:55.696Z,2.23
2022-10-16T04:20:24.243Z,1.87
2022-10-16T04:22:52.798Z,1.70
2022-10-16T04:25:21.177Z,2.00
2022-10-16T04:27:49.542Z,1.60
2022-10-16T04:30:17.937Z,1.60
2022-10-16T04:32:46.313Z,1.50
2022-10-16T04:35:16.085Z,1.70
2022-10-16T04:37:44.464Z,2.20
2022-10-16T04:40:13.102Z,2.00
2022-10-16T04:42:41.697Z,1.90
2022-10-16T04:45:13.395Z,1.90
2022-10-16T04:47:44.734Z,2.53
2022-10-16T04:50:13.222Z,1.80
2022-10-16T04:52:43.085Z,2.10
2022-10-16T04:55:11.456Z,1.87
2022-10-16T04:57:39.857Z,2.07
2022-10-16T05:00:09.096Z,2.00
2022-10-16T05:02:38.010Z,2.00
2022-10-16T05:05:06.938Z,2.00
2022-10-16T05:07:35.283Z,2.00
2022-10-16T05:10:05.233Z,1.90
2022-10-16T05:12:33.783Z,2.47
2022-10-16T05:15:02.171Z,2.10
2022-10-16T05:17:30.560Z,2.70
2022-10-16T05:19:59.038Z,2.00
2022-10-16T05:22:27.381Z,2.40
2022-10-16T05:24:55.727Z,2.97
2022-10-16T05:27:25.666Z,2.17
2022-10-16T05:29:54.116Z,2.47
2022-10-16T05:32:22.592Z,2.33
2022-10-16T05:34:50.991Z,2.57
2022-10-16T05:37:19.359Z,2.10
2022-10-16T05:39:47.702Z,2.50
2022-10-16T05:42:16.534Z,2.60
2022-10-16T05:44:46.529Z,2.50
2022-10-16T05:47:15.210Z,2.50
2022-10-16T05:49:43.519Z,2.63
2022-10-16T05:52:12.168Z,2.70
2022-10-16T05:54:40.516Z,2.70
2022-10-16T05:57:08.890Z,2.40
2022-10-16T05:59:37.954Z,2.33
2022-10-16T06:02:07.741Z,2.47
2022-10-16T06:04:36.390Z,2.60
2022-10-16T06:07:04.757Z,2.23
2022-10-16T06:09:33.339Z,2.17
2022-10-16T06:12:01.762Z,2.30
2022-10-16T06:14:30.273Z,2.20
2022-10-16T06:16:58.615Z,2.20
2022-10-16T06:19:28.440Z,2.07
2022-10-16T06:21:59.084Z,1.90
2022-10-16T06:24:27.660Z,1.73
2022-10-16T06:26:56.344Z,1.93
2022-10-16T06:29:24.876Z,2.47
2022-10-16T06:31:53.973Z,1.83
2022-10-16T06:34:22.424Z,1.87
2022-10-16T06:36:52.131Z,1.70
2022-10-16T06:39:20.695Z,1.80
2022-10-16T06:41:49.977Z,2.07
2022-10-16T06:44:18.438Z,2.20
2022-10-16T06:46:46.753Z,1.77
2022-10-16T06:49:22.222Z,1.50
2022-10-16T06:51:51.971Z,1.70
2022-10-16T06:54:20.308Z,2.00
2022-10-16T06:56:49.073Z,2.00
2022-10-16T06:59:17.467Z,1.80
2022-10-16T07:01:45.825Z,1.90
2022-10-16T07:04:14.407Z,1.97
2022-10-16T07:06:43.070Z,2.13
2022-10-16T07:09:12.905Z,2.40
2022-10-16T07:11:41.800Z,2.07
2022-10-16T07:14:14.008Z,2.10
2022-10-16T07:16:42.538Z,2.27
2022-10-16T07:19:12.815Z,2.63
2022-10-16T07:21:41.226Z,2.40
2022-10-16T07:24:10.652Z,2.67
2022-10-16T07:26:40.776Z,2.50
2022-10-16T07:29:09.822Z,2.67
2022-10-16T07:31:38.983Z,2.17
2022-10-16T07:34:07.518Z,2.10
2022-10-16T07:36:36.166Z,2.30
2022-10-16T07:39:04.491Z,2.20
2022-10-16T07:41:33.754Z,2.13
2022-10-16T07:44:03.435Z,2.60
2022-10-16T07:46:32.315Z,2.20
2022-10-16T07:49:00.611Z,2.30
2022-10-16T07:51:29.409Z,2.53
2022-10-16T07:53:57.829Z,3.27
2022-10-16T07:56:26.747Z,2.13
2022-10-16T07:58:55.179Z,2.20
2022-10-16T08:01:28.109Z,2.40
2022-10-16T08:03:56.736Z,1.97
2022-10-16T08:06:27.821Z,2.43
2022-10-16T08:08:56.985Z,2.17
2022-10-16T08:11:25.578Z,1.80
2022-10-16T08:13:53.929Z,2.17
2022-10-16T08:16:22.617Z,2.50
2022-10-16T08:18:52.814Z,2.30
2022-10-16T08:21:21.944Z,2.00
2022-10-16T08:23:54.677Z,2.73
2022-10-16T08:26:25.686Z,2.60
2022-10-16T08:28:54.291Z,2.13
2022-10-16T08:31:22.836Z,2.10
2022-10-16T08:33:53.358Z,2.57
2022-10-16T08:36:21.736Z,2.37
2022-10-16T08:38:51.343Z,2.37
2022-10-16T08:41:29.342Z,2.30
2022-10-16T08:44:01.388Z,2.57
2022-10-16T08:46:33.574Z,2.30
2022-10-16T08:49:06.822Z,2.30
2022-10-16T08:51:37.068Z,2.20
2022-10-16T08:54:07.723Z,2.37
2022-10-16T08:56:36.022Z,2.30
2022-10-16T08:59:04.485Z,2.70
2022-10-16T09:01:36.743Z,2.73
2022-10-16T09:04:21.982Z,2.43
2022-10-16T09:06:50.852Z,2.10
2022-10-16T09:09:26.296Z,2.50
2022-10-16T09:11:55.491Z,2.63
2022-10-16T09:14:32.382Z,2.23
2022-10-16T09:17:01.788Z,3.23
2022-10-16T09:19:36.309Z,2.67
2022-10-16T09:22:05.061Z,2.17
2022-10-16T09:24:33.340Z,2.50
2022-10-16T09:27:02.006Z,2.53
2022-10-16T09:29:30.290Z,2.30
2022-10-16T09:31:58.698Z,2.73
2022-10-16T09:34:27.592Z,2.43
2022-10-16T09:36:57.422Z,2.37
2022-10-16T09:39:26.060Z,2.00
2022-10-16T09:41:54.333Z,2.23
2022-10-16T09:44:24.164Z,2.50
2022-10-16T09:47:03.104Z,2.47
2022-10-16T09:49:31.544Z,2.10
2022-10-16T09:52:07.334Z,2.23
2022-10-16T09:54:35.613Z,2.30
2022-10-16T09:57:07.235Z,2.33
2022-10-16T09:59:35.663Z,1.93
2022-10-16T10:02:04.657Z,2.10
2022-10-16T10:04:42.104Z,2.37
2022-10-16T10:07:17.848Z,2.20
2022-10-16T10:09:46.246Z,2.20
2022-10-16T10:12:21.836Z,2.23
2022-10-16T10:14:53.338Z,2.40
2022-10-16T10:17:22.120Z,2.10
2022-10-16T10:19:51.416Z,3.83
2022-10-16T10:22:21.831Z,2.80
2022-10-16T10:24:57.391Z,2.60
2022-10-16T10:27:28.344Z,2.63
2022-10-16T10:29:57.876Z,2.73
2022-10-16T10:32:29.712Z,2.80
2022-10-16T10:35:01.998Z,2.67
2022-10-16T10:37:38.090Z,2.10
2022-10-16T10:40:08.576Z,2.70
2022-10-16T10:42:37.699Z,2.50
2022-10-16T10:45:18.140Z,2.63
2022-10-16T10:47:51.211Z,2.90
2022-10-16T10:50:21.243Z,2.27
2022-10-16T10:52:54.838Z,2.83
2022-10-16T10:55:26.702Z,2.93
2022-10-16T10:57:59.263Z,1.87
2022-10-16T11:00:29.581Z,2.20
2022-10-16T11:02:58.696Z,2.20
2022-10-16T11:05:35.088Z,2.00
2022-10-16T11:08:05.580Z,2.27
2022-10-16T11:10:35.317Z,1.93
2022-10-16T11:13:06.746Z,1.83
2022-10-16T11:15:35.877Z,1.70
2022-10-16T11:18:06.316Z,2.90
2022-10-16T11:20:35.104Z,2.37
2022-10-16T11:23:05.508Z,2.00
2022-10-16T11:25:34.257Z,2.10
2022-10-16T11:28:04.155Z,2.40
2022-10-16T11:30:33.362Z,1.40
2022-10-16T11:33:07.349Z,1.80
2022-10-16T11:35:39.678Z,1.83
2022-10-16T11:38:10.149Z,1.80
2022-10-16T11:40:42.166Z,2.47
2022-10-16T11:43:17.534Z,2.10
2022-10-16T11:45:47.071Z,1.60
2022-10-16T11:48:18.538Z,1.80
2022-10-16T11:50:49.373Z,1.70
2022-10-16T11:53:19.965Z,1.93
2022-10-16T11:55:48.414Z,1.47
2022-10-16T11:58:18.894Z,1.83
2022-10-16T12:00:48.431Z,1.70
2022-10-16T12:03:18.962Z,1.47
2022-10-16T12:05:59.655Z,1.53
2022-10-16T12:08:29.824Z,2.20
2022-10-16T12:11:06.831Z,2.07
2022-10-16T12:13:35.733Z,1.53
2022-10-16T12:16:08.094Z,2.23
2022-10-16T12:18:36.605Z,1.90
2022-10-16T12:21:07.552Z,2.00
2022-10-16T12:23:39.426Z,1.97
2022-10-16T12:26:07.706Z,2.33
2022-10-16T12:28:36.614Z,2.00
2022-10-16T12:31:06.080Z,2.10
2022-10-16T12:33:34.777Z,1.80
2022-10-16T12:36:03.543Z,1.70
2022-10-16T12:38:32.983Z,1.97
2022-10-16T12:41:04.710Z,2.27
2022-10-16T12:43:40.614Z,1.90
2022-10-16T12:46:26.829Z,2.03
2022-10-16T12:49:06.673Z,2.37
2022-10-16T12:51:37.511Z,3.17
2022-10-16T12:54:06.292Z,1.40
2022-10-16T12:59:15.895Z,2.40
2022-10-16T13:01:45.430Z,2.17
2022-10-16T13:04:28.830Z,2.30
2022-10-16T13:06:58.950Z,2.03
2022-10-16T13:09:33.374Z,1.83
2022-10-16T13:12:07.491Z,2.83
2022-10-16T13:14:56.760Z,2.30
2022-10-16T13:17:26.492Z,2.37
2022-10-16T13:19:56.855Z,2.23
2022-10-16T13:22:26.129Z,3.00
2022-10-16T13:24:57.774Z,2.23
2022-10-16T13:27:30.186Z,2.10
2022-10-16T13:30:03.374Z,2.00
2022-10-16T13:32:31.709Z,2.63
2022-10-16T13:35:01.986Z,2.30
2022-10-16T13:37:30.518Z,1.97
2022-10-16T13:40:05.345Z,2.30
2022-10-16T13:45:27.414Z,2.57
2022-10-16T13:48:14.210Z,2.47
2022-10-16T13:50:42.668Z,1.90
2022-10-16T13:53:13.827Z,2.20
2022-10-16T13:55:42.412Z,2.20
2022-10-16T13:58:15.617Z,2.80
2022-10-16T14:00:44.272Z,2.40
2022-10-16T14:03:16.605Z,2.07
2022-10-16T14:06:09.015Z,2.30
2022-10-16T14:08:37.372Z,2.40
2022-10-16T14:11:06.079Z,2.53
2022-10-16T14:13:37.044Z,2.47
2022-10-16T14:16:07.116Z,2.63
2022-10-16T14:18:35.973Z,2.50
2022-10-16T14:21:07.931Z,2.50
2022-10-16T14:23:48.031Z,2.20
2022-10-16T14:26:17.218Z,2.27
2022-10-16T14:28:47.008Z,1.70
2022-10-16T14:31:32.433Z,2.03
2022-10-16T14:34:00.891Z,2.07
2022-10-16T14:36:29.592Z,2.50
2022-10-16T14:39:00.316Z,2.07
2022-10-16T14:41:28.648Z,2.70
2022-10-16T14:43:58.542Z,2.33
2022-10-16T14:46:31.595Z,2.80
2022-10-16T14:49:01.355Z,2.43
2022-10-16T14:51:29.896Z,2.63
2022-10-16T14:54:00.315Z,2.40
2022-10-16T14:56:33.086Z,2.43
2022-10-16T14:59:03.267Z,2.77
2022-10-16T15:01:31.701Z,2.43
2022-10-16T15:04:00.289Z,2.60
2022-10-16T15:06:28.838Z,2.50
2022-10-16T15:08:57.648Z,2.47
2022-10-16T15:11:26.041Z,3.30
2022-10-16T15:13:54.370Z,2.33
2022-10-16T15:16:24.534Z,2.80
2022-10-16T15:18:54.045Z,2.57
2022-10-16T15:21:24.095Z,2.80
2022-10-16T15:23:58.041Z,2.90
2022-10-16T15:26:26.480Z,2.73
2022-10-16T15:28:55.222Z,2.80
2022-10-16T15:31:33.537Z,3.17
2022-10-16T15:34:05.373Z,3.97
2022-10-16T15:36:35.520Z,3.07
2022-10-16T15:39:04.099Z,2.93
2022-10-16T15:41:32.994Z,3.03
2022-10-16T15:44:07.744Z,3.17
2022-10-16T15:46:38.296Z,2.83
2022-10-16T15:49:07.412Z,3.30
2022-10-16T15:51:35.782Z,2.80
2022-10-16T15:54:04.500Z,3.27
2022-10-16T15:56:34.268Z,2.97
2022-10-16T15:59:03.133Z,2.67
2022-10-16T16:01:31.707Z,2.30
2022-10-16T16:04:31.845Z,2.77
2022-10-16T16:07:00.009Z,3.33
2022-10-16T16:09:28.512Z,3.87
2022-10-16T16:11:57.573Z,2.40
2022-10-16T16:14:29.468Z,2.50
2022-10-16T16:16:57.878Z,2.80
2022-10-16T16:19:31.040Z,2.57
2022-10-16T16:21:59.776Z,3.47
2022-10-16T16:24:28.304Z,4.30
2022-10-16T16:27:00.006Z,4.73
2022-10-16T16:29:28.566Z,4.10
2022-10-16T16:32:00.290Z,3.47
2022-10-16T16:34:28.639Z,3.40
2022-10-16T16:36:58.499Z,3.90
2022-10-16T16:39:29.972Z,5.63
2022-10-16T16:41:59.333Z,5.37
2022-10-16T16:44:30.670Z,4.60
2022-10-16T16:46:59.790Z,4.80
2022-10-16T16:49:28.488Z,5.00
2022-10-16T16:51:58.403Z,6.23
2022-10-16T16:54:27.045Z,8.77
2022-10-16T16:56:55.363Z,9.33
2022-10-16T16:59:24.509Z,9.97
2022-10-16T17:01:56.724Z,9.97
2022-10-16T17:04:25.589Z,10.47
2022-10-16T17:06:55.091Z,10.10
2022-10-16T17:09:24.999Z,12.13
2022-10-16T17:11:53.473Z,11.33
2022-10-16T17:14:22.118Z,11.47
2022-10-16T17:16:50.484Z,10.80
2022-10-16T17:19:19.417Z,11.03
2022-10-16T17:21:47.911Z,10.97
2022-10-16T17:24:16.692Z,14.13
2022-10-16T17:26:49.205Z,15.50
2022-10-16T17:29:18.073Z,14.70
2022-10-16T17:31:46.388Z,14.83
2022-10-16T17:34:14.843Z,15.60
2022-10-16T17:36:46.972Z,15.00
2022-10-16T17:39:18.203Z,16.90
2022-10-16T17:41:48.484Z,18.53
2022-10-16T17:44:20.640Z,19.93
2022-10-16T17:46:55.303Z,20.07
2022-10-16T17:51:56.111Z,18.10
2022-10-16T17:54:25.662Z,15.50
2022-10-16T17:56:55.757Z,13.00
2022-10-16T17:59:24.357Z,9.40
2022-10-16T18:01:53.384Z,8.60
2022-10-16T18:04:21.930Z,8.50
2022-10-16T18:06:50.294Z,8.13
2022-10-16T18:09:19.226Z,7.83
2022-10-16T18:11:47.663Z,6.50
2022-10-16T18:14:17.599Z,6.43
2022-10-16T18:16:46.166Z,5.67
2022-10-16T18:19:14.703Z,5.47
2022-10-16T18:21:43.268Z,5.07
2022-10-16T18:24:11.657Z,5.77
2022-10-16T18:26:42.335Z,6.40
2022-10-16T18:29:11.116Z,6.93
2022-10-16T18:31:54.870Z,6.13
2022-10-16T18:34:23.373Z,7.23
2022-10-16T18:36:54.316Z,7.10
2022-10-16T18:39:24.797Z,6.53
2022-10-16T18:41:59.504Z,7.07
2022-10-16T18:44:28.616Z,6.60
2022-10-16T18:46:59.173Z,6.50
2022-10-16T18:49:28.351Z,6.90
2022-10-16T18:51:57.644Z,5.67
2022-10-16T18:54:26.303Z,6.43
2022-10-16T18:56:54.650Z,5.37
2022-10-16T18:59:23.155Z,5.43
2022-10-16T19:01:52.571Z,5.27
2022-10-16T19:04:23.967Z,5.47
2022-10-16T19:06:52.966Z,5.97
2022-10-16T19:09:21.861Z,5.73
2022-10-16T19:11:53.403Z,5.37
2022-10-16T19:14:21.918Z,5.97
2022-10-16T19:16:50.405Z,5.90
2022-10-16T19:19:20.612Z,5.70
2022-10-16T19:21:56.032Z,6.53
2022-10-16T19:24:24.465Z,5.93
2022-10-16T19:26:52.908Z,5.63
2022-10-16T19:29:21.235Z,6.33
2022-10-16T19:31:50.027Z,6.23
2022-10-16T19:34:21.739Z,6.53
2022-10-16T19:36:51.704Z,6.40
2022-10-16T19:41:53.446Z,6.37
2022-10-16T19:44:22.103Z,6.30
2022-10-16T19:47:09.989Z,7.97
2022-10-16T19:49:56.607Z,6.87
2022-10-16T19:52:33.151Z,6.70
2022-10-16T19:55:35.937Z,6.93
2022-10-16T19:58:07.719Z,6.77
2022-10-16T20:00:40.761Z,6.67
2022-10-16T20:03:21.854Z,6.80
2022-10-16T20:06:30.404Z,7.40
2022-10-16T20:09:00.229Z,7.53
2022-10-16T20:11:30.223Z,7.20
2022-10-16T20:14:03.529Z,7.30
2022-10-16T20:16:32.497Z,7.20
2022-10-16T20:19:02.476Z,6.57
2022-10-16T20:21:34.687Z,6.97
2022-10-16T20:24:16.693Z,7.10
2022-10-16T20:26:54.081Z,6.83
2022-10-16T20:29:25.375Z,7.33
2022-10-16T20:31:57.107Z,8.27
2022-10-16T20:34:29.711Z,7.13
2022-10-16T20:37:14.249Z,7.33
2022-10-16T20:39:45.874Z,7.00
2022-10-16T20:42:17.320Z,7.10
2022-10-16T20:44:51.224Z,6.57
2022-10-16T20:47:20.529Z,7.07
2022-10-16T20:49:52.920Z,7.27
2022-10-16T20:52:29.392Z,7.07
2022-10-16T20:55:14.674Z,6.00
2022-10-16T20:57:45.279Z,5.90
2022-10-16T21:00:18.370Z,5.80
2022-10-16T21:02:53.112Z,6.27
2022-10-16T21:05:22.007Z,5.90
2022-10-16T21:07:57.925Z,5.77
2022-10-16T21:10:36.877Z,5.90
2022-10-16T21:13:13.423Z,5.67
2022-10-16T21:15:47.538Z,5.90
2022-10-16T21:18:17.698Z,5.53
2022-10-16T21:20:46.757Z,5.43
2022-10-16T21:23:17.811Z,5.50
2022-10-16T21:25:52.856Z,5.23
2022-10-16T21:28:26.096Z,5.30
2022-10-16T21:30:54.997Z,5.27
2022-10-16T21:33:24.224Z,5.10
2022-10-16T21:35:54.963Z,5.07
2022-10-16T21:38:32.404Z,4.33
2022-10-16T21:41:03.225Z,5.10
2022-10-16T21:43:38.252Z,4.47
2022-10-16T21:46:07.203Z,4.43
2022-10-16T21:48:36.007Z,4.00
2022-10-16T21:51:04.574Z,4.80
2022-10-16T21:53:33.417Z,4.73
2022-10-16T21:56:05.029Z,4.37
2022-10-16T21:58:40.370Z,4.30
2022-10-16T22:01:10.368Z,4.50
2022-10-16T22:03:45.340Z,4.20
2022-10-16T22:06:16.400Z,3.80
2022-10-16T22:08:48.090Z,3.60
2022-10-16T22:11:21.588Z,4.30
2022-10-16T22:13:54.045Z,3.77
2022-10-16T22:16:36.325Z,3.67
2022-10-16T22:19:07.503Z,3.80
2022-10-16T22:21:36.539Z,3.67
2022-10-16T22:24:08.718Z,3.77
2022-10-16T22:27:04.862Z,3.30
2022-10-16T22:29:38.121Z,3.27
2022-10-16T22:32:07.109Z,3.50
2022-10-16T22:34:35.738Z,3.23
2022-10-16T22:37:06.357Z,3.90
2022-10-16T22:39:35.115Z,3.93
2022-10-16T22:42:04.318Z,3.80
2022-10-16T22:44:37.854Z,4.13
2022-10-16T22:47:06.605Z,3.97
2022-10-16T22:49:38.401Z,3.83
2022-10-16T22:52:07.571Z,4.20
2022-10-16T22:54:36.500Z,4.00
2022-10-16T22:57:05.485Z,3.67
2022-10-16T22:59:36.017Z,3.63
2022-10-16T23:02:04.770Z,3.60
2022-10-16T23:04:34.781Z,4.37
2022-10-16T23:07:03.867Z,3.70
2022-10-16T23:09:36.187Z,3.67
2022-10-16T23:12:07.092Z,4.10
2022-10-16T23:14:38.336Z,3.80
2022-10-16T23:17:07.019Z,4.40
2022-10-16T23:19:37.705Z,4.40
2022-10-16T23:22:09.809Z,3.80
2022-10-16T23:24:43.651Z,3.80
2022-10-16T23:27:14.876Z,4.03
2022-10-16T23:29:46.641Z,4.13
2022-10-16T23:32:20.699Z,3.87
2022-10-16T23:34:57.547Z,4.17
2022-10-16T23:37:28.636Z,3.93
2022-10-16T23:39:57.588Z,4.47
2022-10-16T23:42:29.381Z,3.90
2022-10-16T23:45:08.147Z,4.30
2022-10-16T23:50:19.463Z,3.87
2022-10-16T23:52:51.325Z,4.47
2022-10-16T23:55:20.259Z,4.20
2022-10-16T23:57:49.230Z,4.77
